Time;durP1;ratioP1;P1;durP2;ratioP2;P2;SDS_P1;SDS_P2;PMS_P1;PMS_P2;Temp;Humidity;BMP_temperature;BMP_pressure;BME280_temperature;BME280_humidity;BME280_pressure;Samples;Min_cycle;Max_cycle;Signal;HPM_P1;HPM_P2
2019/05/16 00:00:51;;;;;;;8.6;6.9;;;;;;;6.42;80.21484;938.4686;;;;
2019/05/16 00:03:17;;;;;;;7.8;6.8;;;;;;;6.38;79.70898;938.4166;;;;
2019/05/16 00:05:52;;;;;;;8.1;6.6;;;;;;;6.12;80.20508;938.4239;;;;
2019/05/16 00:08:15;;;;;;;9.4;7.4;;;;;;;6.16;80.60547;938.4129;;;;
2019/05/16 00:10:41;;;;;;;9.2;7.5;;;;;;;6.25;79.84375;938.4182;;;;
2019/05/16 00:13:08;;;;;;;9.8;7.8;;;;;;;6.32;79.40234;938.3714;;;;
2019/05/16 00:15:36;;;;;;;10.3;7.8;;;;;;;6.31;79.39063;938.3759;;;;
2019/05/16 00:18:01;;;;;;;10.8;7.3;;;;;;;6.11;80.39355;938.3951;;;;
2019/05/16 00:20:28;;;;;;;9.1;6.8;;;;;;;5.92;81.0127;938.3844;;;;
2019/05/16 00:22:53;;;;;;;8.3;7;;;;;;;6.09;80.28809;938.3929;;;;
2019/05/16 00:25:16;;;;;;;9.4;8.1;;;;;;;6.29;79.49902;938.3145;;;;
2019/05/16 00:27:42;;;;;;;9.3;7.5;;;;;;;5.97;80.93066;938.2756;;;;
2019/05/16 00:30:17;;;;;;;9.3;7.5;;;;;;;5.7;82.24609;938.2955;;;;
2019/05/16 00:32:52;;;;;;;9.2;7.2;;;;;;;5.63;83.1709;938.2209;;;;
2019/05/16 00:35:19;;;;;;;10.8;7.4;;;;;;;5.79;82.66016;938.2592;;;;
2019/05/16 00:37:58;;;;;;;8.8;7.8;;;;;;;6.03;81.37207;938.2499;;;;
2019/05/16 00:40:25;;;;;;;10.5;7.6;;;;;;;6.25;80.22852;938.1398;;;;
2019/05/16 00:42:55;;;;;;;9.2;7.9;;;;;;;6.34;79.51953;938.2344;;;;
2019/05/16 00:45:24;;;;;;;8.9;7.2;;;;;;;6.15;79.77832;938.2576;;;;
2019/05/16 00:47:52;;;;;;;7.6;6.8;;;;;;;6.09;80.2207;938.2619;;;;
2019/05/16 00:50:17;;;;;;;9.8;7.3;;;;;;;6.34;79.46387;938.1838;;;;
2019/05/16 00:52:57;;;;;;;10.7;8;;;;;;;6.47;79.13672;938.2078;;;;
2019/05/16 00:55:23;;;;;;;10.9;7.8;;;;;;;6.39;79.47559;938.171;;;;
2019/05/16 00:57:55;;;;;;;11.5;7.9;;;;;;;6.41;79.2959;938.0981;;;;
2019/05/16 01:00:21;;;;;;;9.4;7.9;;;;;;;6.51;78.7373;937.9891;;;;
2019/05/16 01:02:51;;;;;;;6.7;6;;;;;;;6.2;79.06543;937.916;;;;
2019/05/16 01:05:29;;;;;;;6.6;5.9;;;;;;;5.85;80.875;937.9094;;;;
2019/05/16 01:08:01;;;;;;;8.4;6.6;;;;;;;5.85;80.9541;937.7911;;;;
2019/05/16 01:10:28;;;;;;;7.4;6.2;;;;;;;5.88;80.46387;937.814;;;;
2019/05/16 01:13:01;;;;;;;8.8;6.3;;;;;;;5.82;80.8252;937.7642;;;;
2019/05/16 01:15:34;;;;;;;9.4;6.9;;;;;;;6.06;79.86523;937.8003;;;;
2019/05/16 01:18:03;;;;;;;9.3;6.4;;;;;;;5.71;80.83789;937.7933;;;;
2019/05/16 01:20:35;;;;;;;8.1;6.7;;;;;;;5.64;81.34375;937.7607;;;;
2019/05/16 01:23:02;;;;;;;7.3;6.6;;;;;;;5.73;80.875;937.699;;;;
2019/05/16 01:25:35;;;;;;;9;7;;;;;;;5.71;81.27832;937.6669;;;;
2019/05/16 01:27:55;;;;;;;7;6.2;;;;;;;5.6;81.57422;937.6409;;;;
2019/05/16 01:30:27;;;;;;;10.1;6.6;;;;;;;5.57;81.40918;937.6353;;;;
2019/05/16 01:32:54;;;;;;;7.3;6.5;;;;;;;5.57;81.55566;937.6519;;;;
2019/05/16 01:35:26;;;;;;;7.9;6.8;;;;;;;5.63;81.20703;937.6097;;;;
2019/05/16 01:37:57;;;;;;;9.5;7.2;;;;;;;5.78;80.41016;937.5519;;;;
2019/05/16 01:40:28;;;;;;;6.8;6.1;;;;;;;5.65;80.51172;937.6331;;;;
2019/05/16 01:43:10;;;;;;;9.1;6.6;;;;;;;5.38;81.53125;937.6581;;;;
2019/05/16 01:45:34;;;;;;;7;6.3;;;;;;;5.27;82.1543;937.5859;;;;
2019/05/16 01:48:00;;;;;;;7.6;6.8;;;;;;;5.03;82.93066;937.6125;;;;
2019/05/16 01:50:34;;;;;;;9.1;6.9;;;;;;;4.83;83.86133;937.5466;;;;
2019/05/16 01:53:14;;;;;;;9.7;7.1;;;;;;;4.8;84.1582;937.5193;;;;
2019/05/16 01:55:38;;;;;;;8.6;6.7;;;;;;;4.9;83.90918;937.5248;;;;
2019/05/16 01:58:07;;;;;;;8.4;6.9;;;;;;;4.78;84.01953;937.4533;;;;
2019/05/16 02:00:32;;;;;;;7.6;6.7;;;;;;;4.79;84.05469;937.3983;;;;
2019/05/16 02:03:06;;;;;;;7.1;6.4;;;;;;;4.99;83.10059;937.4847;;;;
2019/05/16 02:05:31;;;;;;;7.1;6.4;;;;;;;4.82;83.57813;937.4295;;;;
2019/05/16 02:08:02;;;;;;;8;7.1;;;;;;;4.71;84.1084;937.4458;;;;
2019/05/16 02:10:30;;;;;;;8;6.6;;;;;;;4.75;83.78906;937.4138;;;;
2019/05/16 02:13:06;;;;;;;6.8;6.1;;;;;;;4.8;83.03125;937.3719;;;;
2019/05/16 02:15:28;;;;;;;7;6.3;;;;;;;4.97;82.43555;937.3763;;;;
2019/05/16 02:17:57;;;;;;;8.7;6.7;;;;;;;4.85;82.80566;937.3137;;;;
2019/05/16 02:20:34;;;;;;;8.5;6.5;;;;;;;4.89;82.62109;937.2271;;;;
2019/05/16 02:23:11;;;;;;;7;6.3;;;;;;;4.94;82.51855;937.2019;;;;
2019/05/16 02:25:37;;;;;;;8.7;6.7;;;;;;;4.87;82.5498;937.1192;;;;
2019/05/16 02:28:11;;;;;;;7.8;6.8;;;;;;;4.75;82.78613;937.0098;;;;
2019/05/16 02:30:36;;;;;;;8.2;6.9;;;;;;;4.62;83.66113;936.9943;;;;
2019/05/16 02:33:02;;;;;;;9.2;7.4;;;;;;;4.42;84.44336;936.9542;;;;
2019/05/16 02:35:30;;;;;;;8.6;7.6;;;;;;;4.41;84.28418;936.9042;;;;
2019/05/16 02:37:57;;;;;;;8.3;7.5;;;;;;;4.33;84.59473;936.8298;;;;
2019/05/16 02:40:35;;;;;;;9.5;7.7;;;;;;;4.26;84.74902;936.7512;;;;
2019/05/16 02:43:01;;;;;;;9.5;7.8;;;;;;;4.19;84.92773;936.6928;;;;
2019/05/16 02:45:32;;;;;;;9.4;7.8;;;;;;;4.26;84.88379;936.6841;;;;
2019/05/16 02:47:57;;;;;;;8.6;7.7;;;;;;;4.38;84.40234;936.6453;;;;
2019/05/16 02:50:25;;;;;;;8.8;7.5;;;;;;;;;;;;;
2019/05/16 02:52:51;;;;;;;8;7.2;;;;;;;;;;;;;
2019/05/16 02:55:13;;;;;;;8.5;7.6;;;;;;;;;;;;;
2019/05/16 02:57:42;;;;;;;7.7;7;;;;;;;;;;;;;
2019/05/16 03:00:05;;;;;;;8.8;7.9;;;;;;;;;;;;;
2019/05/16 03:02:30;;;;;;;8.5;7.7;;;;;;;;;;;;;
2019/05/16 03:04:57;;;;;;;8.1;7.3;;;;;;;;;;;;;
2019/05/16 03:07:23;;;;;;;8.5;7.2;;;;;;;;;;;;;
2019/05/16 03:09:48;;;;;;;9;7.5;;;;;;;;;;;;;
2019/05/16 03:12:13;;;;;;;15;7.4;;;;;;;;;;;;;
2019/05/16 03:14:42;;;;;;;9.3;7.4;;;;;;;;;;;;;
2019/05/16 03:17:08;;;;;;;12.4;7.8;;;;;;;;;;;;;
2019/05/16 03:19:32;;;;;;;8;7.2;;;;;;;;;;;;;
2019/05/16 03:22:02;;;;;;;8.2;7.3;;;;;;;;;;;;;
2019/05/16 03:24:26;;;;;;;8.2;7;;;;;;;;;;;;;
2019/05/16 03:26:51;;;;;;;8.5;7.7;;;;;;;;;;;;;
2019/05/16 03:29:18;;;;;;;9.3;8;;;;;;;;;;;;;
2019/05/16 03:31:41;;;;;;;9;7.7;;;;;;;;;;;;;
2019/05/16 03:34:06;;;;;;;8.4;7.5;;;;;;;;;;;;;
2019/05/16 03:36:35;;;;;;;8.7;6.8;;;;;;;;;;;;;
2019/05/16 03:38:59;;;;;;;7.6;6.3;;;;;;;;;;;;;
2019/05/16 03:41:26;;;;;;;7.6;6.8;;;;;;;;;;;;;
2019/05/16 03:43:50;;;;;;;7.3;6.5;;;;;;;;;;;;;
2019/05/16 03:46:22;;;;;;;8;6.7;;;;;;;;;;;;;
2019/05/16 03:48:42;;;;;;;8.1;7.3;;;;;;;;;;;;;
2019/05/16 03:51:17;;;;;;;8.8;7;;;;;;;;;;;;;
2019/05/16 03:53:43;;;;;;;7.8;7;;;;;;;;;;;;;
2019/05/16 03:56:08;;;;;;;8.5;7.1;;;;;;;;;;;;;
2019/05/16 03:58:33;;;;;;;8.5;7.3;;;;;;;;;;;;;
2019/05/16 04:02:39;;;;;;;8.4;7.3;;;;;;;3.73;84.56641;936.108;;;;
2019/05/16 04:05:14;;;;;;;8;7.2;;;;;;;3.87;84.24414;936.1487;;;;
2019/05/16 04:07:45;;;;;;;9.5;7.4;;;;;;;3.92;84.08496;936.0446;;;;
2019/05/16 04:10:12;;;;;;;8.7;7.8;;;;;;;;;;;;;
2019/05/16 04:17:35;;;;;;;9.6;7.8;;;;;;;;;;;;;
2019/05/16 04:19:56;;;;;;;8.6;7.1;;;;;;;;;;;;;
2019/05/16 04:22:23;;;;;;;7.8;7;;;;;;;;;;;;;
2019/05/16 04:24:52;;;;;;;8.6;6.5;;;;;;;;;;;;;
2019/05/16 04:27:16;;;;;;;10.5;7.5;;;;;;;;;;;;;
2019/05/16 04:29:39;;;;;;;7.1;6.3;;;;;;;;;;;;;
2019/05/16 04:32:12;;;;;;;8.8;6.8;;;;;;;;;;;;;
2019/05/16 04:34:35;;;;;;;6.6;6;;;;;;;;;;;;;
2019/05/16 04:37:06;;;;;;;8.8;6.5;;;;;;;;;;;;;
2019/05/16 04:39:29;;;;;;;7.8;6.8;;;;;;;;;;;;;
2019/05/16 04:41:55;;;;;;;11.7;6.7;;;;;;;;;;;;;
2019/05/16 04:44:21;;;;;;;9;6.8;;;;;;;;;;;;;
2019/05/16 04:46:46;;;;;;;10.8;6.6;;;;;;;;;;;;;
2019/05/16 04:49:11;;;;;;;8.6;6;;;;;;;;;;;;;
2019/05/16 04:51:36;;;;;;;7.4;6.2;;;;;;;;;;;;;
2019/05/16 04:54:02;;;;;;;7.5;5.8;;;;;;;;;;;;;
2019/05/16 04:56:27;;;;;;;6.6;6;;;;;;;;;;;;;
2019/05/16 04:58:54;;;;;;;7.2;5;;;;;;;;;;;;;
2019/05/16 05:01:24;;;;;;;6.8;5.1;;;;;;;;;;;;;
2019/05/16 05:17:32;;;;;;;3.9;3.3;;;;;;;;;;;;;
2019/05/16 05:19:56;;;;;;;5.1;3.4;;;;;;;;;;;;;
2019/05/16 05:22:25;;;;;;;4.2;3;;;;;;;;;;;;;
2019/05/16 05:24:51;;;;;;;5;3.1;;;;;;;;;;;;;
2019/05/16 05:27:16;;;;;;;5.8;3.5;;;;;;;;;;;;;
2019/05/16 05:29:41;;;;;;;5.7;3.9;;;;;;;;;;;;;
2019/05/16 05:32:11;;;;;;;6.5;4;;;;;;;;;;;;;
2019/05/16 05:34:43;;;;;;;5;3.7;;;;;;;;;;;;;
2019/05/16 05:37:01;;;;;;;4.9;3.3;;;;;;;;;;;;;
2019/05/16 05:39:26;;;;;;;4.9;3.2;;;;;;;;;;;;;
2019/05/16 05:41:56;;;;;;;4.7;3.3;;;;;;;;;;;;;
2019/05/16 05:44:21;;;;;;;6.6;3.3;;;;;;;;;;;;;
2019/05/16 05:46:43;;;;;;;4.6;3.1;;;;;;;;;;;;;
2019/05/16 05:49:13;;;;;;;8.8;4.5;;;;;;;;;;;;;
2019/05/16 05:51:41;;;;;;;7.2;4.4;;;;;;;;;;;;;
2019/05/16 05:54:00;;;;;;;7.8;3.5;;;;;;;;;;;;;
2019/05/16 05:56:25;;;;;;;7;3.1;;;;;;;;;;;;;
2019/05/16 05:58:50;;;;;;;9.5;3.2;;;;;;;;;;;;;
2019/05/16 06:01:19;;;;;;;3.9;2.8;;;;;;;;;;;;;
2019/05/16 06:03:45;;;;;;;5;3.1;;;;;;;;;;;;;
2019/05/16 06:06:13;;;;;;;4.1;3;;;;;;;;;;;;;
2019/05/16 06:08:36;;;;;;;5.6;2.7;;;;;;;;;;;;;
2019/05/16 06:11:01;;;;;;;4.2;2.6;;;;;;;;;;;;;
2019/05/16 06:13:26;;;;;;;4.4;2.9;;;;;;;;;;;;;
2019/05/16 06:15:58;;;;;;;12.2;5.8;;;;;;;;;;;;;
2019/05/16 06:18:29;;;;;;;6.7;4.5;;;;;;;;;;;;;
2019/05/16 06:21:00;;;;;;;4.8;3.9;;;;;;;;;;;;;
2019/05/16 06:23:23;;;;;;;5.5;3.1;;;;;;;;;;;;;
2019/05/16 06:25:49;;;;;;;6.5;3.3;;;;;;;;;;;;;
2019/05/16 06:28:14;;;;;;;4.4;2.9;;;;;;;;;;;;;
2019/05/16 06:30:42;;;;;;;4.5;2.8;;;;;;;;;;;;;
2019/05/16 06:33:08;;;;;;;4.5;3.1;;;;;;;;;;;;;
2019/05/16 06:35:30;;;;;;;4.7;3;;;;;;;;;;;;;
2019/05/16 06:37:55;;;;;;;6.4;3.3;;;;;;;;;;;;;
2019/05/16 06:40:21;;;;;;;5.2;2.7;;;;;;;;;;;;;
2019/05/16 06:42:47;;;;;;;6.6;2.9;;;;;;;;;;;;;
2019/05/16 06:45:12;;;;;;;3.9;3;;;;;;;;;;;;;
2019/05/16 06:47:40;;;;;;;2.8;2;;;;;;;;;;;;;
2019/05/16 06:50:06;;;;;;;3.1;2;;;;;;;;;;;;;
2019/05/16 06:52:30;;;;;;;3.9;2.2;;;;;;;;;;;;;
2019/05/16 06:55:01;;;;;;;2.3;1.8;;;;;;;;;;;;;
2019/05/16 06:57:26;;;;;;;3;2;;;;;;;;;;;;;
2019/05/16 06:59:52;;;;;;;5.1;2.1;;;;;;;;;;;;;
2019/05/16 07:02:16;;;;;;;4.5;2.3;;;;;;;;;;;;;
2019/05/16 07:04:40;;;;;;;3.4;2.2;;;;;;;;;;;;;
2019/05/16 07:07:05;;;;;;;2.3;2;;;;;;;;;;;;;
2019/05/16 07:09:35;;;;;;;2.8;1.8;;;;;;;;;;;;;
2019/05/16 07:11:57;;;;;;;4.5;2.1;;;;;;;;;;;;;
2019/05/16 07:14:22;;;;;;;2.3;2.1;;;;;;;;;;;;;
2019/05/16 07:16:47;;;;;;;3.8;2.2;;;;;;;;;;;;;
2019/05/16 07:19:14;;;;;;;3.8;2.4;;;;;;;;;;;;;
2019/05/16 07:21:39;;;;;;;2.8;2.2;;;;;;;;;;;;;
2019/05/16 07:24:03;;;;;;;3.2;2.8;;;;;;;;;;;;;
2019/05/16 07:26:40;;;;;;;4.3;3;;;;;;;;;;;;;
2019/05/16 07:29:08;;;;;;;5.2;2.9;;;;;;;;;;;;;
2019/05/16 07:31:31;;;;;;;3.8;3.1;;;;;;;;;;;;;
2019/05/16 07:33:57;;;;;;;6.3;3.2;;;;;;;;;;;;;
2019/05/16 07:36:23;;;;;;;3.8;3.2;;;;;;;;;;;;;
2019/05/16 07:38:50;;;;;;;3.9;3.3;;;;;;;;;;;;;
2019/05/16 07:41:16;;;;;;;4.5;3.6;;;;;;;;;;;;;
2019/05/16 07:43:40;;;;;;;3.8;3.4;;;;;;;;;;;;;
2019/05/16 07:51:21;;;;;;;3.9;3.4;;;;;;;;;;;;;
2019/05/16 07:53:47;;;;;;;3.9;3.3;;;;;;;;;;;;;
2019/05/16 07:56:13;;;;;;;3.4;3.1;;;;;;;;;;;;;
2019/05/16 07:58:42;;;;;;;6.2;3.5;;;;;;;;;;;;;
2019/05/16 08:01:13;;;;;;;3.9;3.2;;;;;;;;;;;;;
2019/05/16 08:03:35;;;;;;;5.4;3.1;;;;;;;;;;;;;
2019/05/16 08:06:00;;;;;;;5.1;3.3;;;;;;;;;;;;;
2019/05/16 08:08:25;;;;;;;4.7;3.2;;;;;;;;;;;;;
2019/05/16 08:10:54;;;;;;;4.7;3.5;;;;;;;;;;;;;
2019/05/16 08:13:17;;;;;;;3.3;3;;;;;;;;;;;;;
2019/05/16 08:15:43;;;;;;;4.1;3.3;;;;;;;;;;;;;
2019/05/16 08:18:08;;;;;;;3.2;2.9;;;;;;;;;;;;;
2019/05/16 08:20:35;;;;;;;4.1;3.2;;;;;;;;;;;;;
2019/05/16 08:22:59;;;;;;;4.8;3.1;;;;;;;;;;;;;
2019/05/16 08:25:24;;;;;;;3.8;2.9;;;;;;;;;;;;;
2019/05/16 08:27:49;;;;;;;5.5;3.1;;;;;;;;;;;;;
2019/05/16 08:30:18;;;;;;;4.1;3;;;;;;;;;;;;;
2019/05/16 08:32:40;;;;;;;4.2;2.9;;;;;;;;;;;;;
2019/05/16 08:35:07;;;;;;;3.2;2.9;;;;;;;;;;;;;
2019/05/16 08:37:34;;;;;;;4.5;3.2;;;;;;;;;;;;;
2019/05/16 08:39:58;;;;;;;3.4;3.1;;;;;;;;;;;;;
2019/05/16 08:42:22;;;;;;;3.2;2.9;;;;;;;;;;;;;
2019/05/16 08:44:48;;;;;;;3.7;2.7;;;;;;;;;;;;;
2019/05/16 08:47:21;;;;;;;5.1;3.1;;;;;;;;;;;;;
2019/05/16 08:49:39;;;;;;;4.1;2.7;;;;;;;;;;;;;
2019/05/16 08:52:07;;;;;;;4.4;2.5;;;;;;;;;;;;;
2019/05/16 08:54:36;;;;;;;5.9;3.1;;;;;;;;;;;;;
2019/05/16 08:56:58;;;;;;;3.5;2.9;;;;;;;;;;;;;
2019/05/16 08:59:24;;;;;;;3.7;2.8;;;;;;;;;;;;;
2019/05/16 09:01:52;;;;;;;4.1;2.7;;;;;;;;;;;;;
2019/05/16 09:07:21;;;;;;;3;2.7;;;;;;;;;;;;;
2019/05/16 09:09:41;;;;;;;3.1;2.6;;;;;;;;;;;;;
2019/05/16 09:12:07;;;;;;;4.1;2.6;;;;;;;;;;;;;
2019/05/16 09:14:33;;;;;;;4.8;3.1;;;;;;;;;;;;;
2019/05/16 09:16:59;;;;;;;3.4;2.6;;;;;;;;;;;;;
2019/05/16 09:19:24;;;;;;;5;3.2;;;;;;;;;;;;;
2019/05/16 09:21:48;;;;;;;4.4;3.2;;;;;;;;;;;;;
2019/05/16 09:24:17;;;;;;;4;3.6;;;;;;;;;;;;;
2019/05/16 09:26:40;;;;;;;5.2;3.7;;;;;;;;;;;;;
2019/05/16 09:29:05;;;;;;;6.1;3.6;;;;;;;;;;;;;
2019/05/16 09:31:30;;;;;;;6.9;3.9;;;;;;;;;;;;;
2019/05/16 09:33:55;;;;;;;6;3.9;;;;;;;;;;;;;
2019/05/16 09:36:23;;;;;;;4.4;3.6;;;;;;;;;;;;;
2019/05/16 09:38:52;;;;;;;5.5;3.6;;;;;;;;;;;;;
2019/05/16 09:41:11;;;;;;;4.6;3.9;;;;;;;;;;;;;
2019/05/16 09:43:37;;;;;;;5.8;4.2;;;;;;;;;;;;;
2019/05/16 09:46:03;;;;;;;6.2;4.4;;;;;;;;;;;;;
2019/05/16 09:48:30;;;;;;;6.6;4.8;;;;;;;;;;;;;
2019/05/16 09:50:54;;;;;;;5.4;4.7;;;;;;;;;;;;;
2019/05/16 09:53:21;;;;;;;7;4.5;;;;;;;;;;;;;
2019/05/16 09:55:44;;;;;;;6.3;4.4;;;;;;;;;;;;;
2019/05/16 09:58:11;;;;;;;6.2;4.9;;;;;;;;;;;;;
2019/05/16 10:00:36;;;;;;;6.5;4.9;;;;;;;;;;;;;
2019/05/16 10:03:16;;;;;;;6.2;5.4;;;;;;;;;;;;;
2019/05/16 10:05:35;;;;;;;7.8;4.9;;;;;;;;;;;;;
2019/05/16 10:08:02;;;;;;;6.7;4.8;;;;;;;;;;;;;
2019/05/16 10:10:26;;;;;;;7;4.7;;;;;;;;;;;;;
2019/05/16 10:12:58;;;;;;;6;4.5;;;;;;;;;;;;;
2019/05/16 10:15:17;;;;;;;4.4;4;;;;;;;;;;;;;
2019/05/16 10:17:43;;;;;;;5.1;4.3;;;;;;;;;;;;;
2019/05/16 10:20:08;;;;;;;6.2;4.7;;;;;;;;;;;;;
2019/05/16 10:22:37;;;;;;;4.6;4.2;;;;;;;;;;;;;
2019/05/16 10:25:00;;;;;;;5.8;4.7;;;;;;;;;;;;;
2019/05/16 10:27:33;;;;;;;5.3;4.7;;;;;;;;;;;;;
2019/05/16 10:29:58;;;;;;;5.4;4.9;;;;;;;;;;;;;
2019/05/16 10:32:28;;;;;;;4.8;4.3;;;;;;;;;;;;;
2019/05/16 10:34:48;;;;;;;5.1;4.6;;;;;;;;;;;;;
2019/05/16 10:37:14;;;;;;;6.1;4.7;;;;;;;;;;;;;
2019/05/16 10:39:45;;;;;;;6.7;4.7;;;;;;;;;;;;;
2019/05/16 10:42:20;;;;;;;6.2;4.4;;;;;;;;;;;;;
2019/05/16 10:44:44;;;;;;;5.3;4.7;;;;;;;;;;;;;
2019/05/16 10:47:13;;;;;;;7.8;4.6;;;;;;;;;;;;;
2019/05/16 10:49:40;;;;;;;5.4;4.5;;;;;;;;;;;;;
2019/05/16 10:52:02;;;;;;;5.1;4.4;;;;;;;;;;;;;
2019/05/16 10:54:34;;;;;;;5.7;4.5;;;;;;;;;;;;;
2019/05/16 10:56:54;;;;;;;5.3;4.5;;;;;;;;;;;;;
2019/05/16 10:59:19;;;;;;;4.7;4.3;;;;;;;;;;;;;
2019/05/16 11:01:50;;;;;;;5.2;4.7;;;;;;;;;;;;;
2019/05/16 11:04:14;;;;;;;5.8;4.6;;;;;;;;;;;;;
2019/05/16 11:06:39;;;;;;;8.8;5.5;;;;;;;;;;;;;
2019/05/16 11:09:08;;;;;;;6.8;5.2;;;;;;;;;;;;;
2019/05/16 11:11:45;;;;;;;7.2;5.8;;;;;;;;;;;;;
2019/05/16 11:14:08;;;;;;;7.3;5.6;;;;;;;;;;;;;
2019/05/16 11:16:30;;;;;;;7.1;5.9;;;;;;;;;;;;;
2019/05/16 11:18:58;;;;;;;7;6.3;;;;;;;;;;;;;
2019/05/16 11:21:21;;;;;;;7.7;6.1;;;;;;;;;;;;;
2019/05/16 11:23:45;;;;;;;9.4;6.3;;;;;;;;;;;;;
2019/05/16 11:26:18;;;;;;;7.2;5.8;;;;;;;;;;;;;
2019/05/16 11:28:43;;;;;;;9.1;6.4;;;;;;;;;;;;;
2019/05/16 11:31:10;;;;;;;6.8;6.1;;;;;;;;;;;;;
2019/05/16 11:33:35;;;;;;;9;6.7;;;;;;;;;;;;;
2019/05/16 11:36:03;;;;;;;8.7;7.1;;;;;;;;;;;;;
2019/05/16 11:38:31;;;;;;;7.8;7;;;;;;;;;;;;;
2019/05/16 11:40:52;;;;;;;8.3;7.3;;;;;;;;;;;;;
2019/05/16 11:43:21;;;;;;;9.7;7;;;;;;;;;;;;;
2019/05/16 11:45:50;;;;;;;9.5;7.6;;;;;;;;;;;;;
2019/05/16 11:48:12;;;;;;;10.2;8.1;;;;;;;;;;;;;
2019/05/16 11:50:38;;;;;;;8.7;7.8;;;;;;;;;;;;;
2019/05/16 11:53:04;;;;;;;8.9;8;;;;;;;;;;;;;
2019/05/16 11:55:32;;;;;;;9.2;7.7;;;;;;;;;;;;;
2019/05/16 11:57:59;;;;;;;11.3;8.2;;;;;;;;;;;;;
2019/05/16 12:00:20;;;;;;;10.5;7.7;;;;;;;;;;;;;
2019/05/16 12:02:45;;;;;;;10.1;8.1;;;;;;;;;;;;;
2019/05/16 12:05:11;;;;;;;9.6;8;;;;;;;;;;;;;
2019/05/16 12:07:39;;;;;;;8.4;7.6;;;;;;;;;;;;;
2019/05/16 12:10:02;;;;;;;9.7;7.8;;;;;;;;;;;;;
2019/05/16 12:12:32;;;;;;;9;8.1;;;;;;;;;;;;;
2019/05/16 12:14:57;;;;;;;8.2;7.4;;;;;;;;;;;;;
2019/05/16 12:17:23;;;;;;;9.2;7.7;;;;;;;;;;;;;
2019/05/16 12:22:18;;;;;;;9.4;8.5;;;;;;;;;;;;;
2019/05/16 12:24:44;;;;;;;10.1;9.1;;;;;;;;;;;;;
2019/05/16 12:27:13;;;;;;;9.9;8.8;;;;;;;;;;;;;
2019/05/16 12:29:36;;;;;;;10.3;9.2;;;;;;;;;;;;;
2019/05/16 12:32:01;;;;;;;10.4;9.4;;;;;;;;;;;;;
2019/05/16 12:34:28;;;;;;;10;9;;;;;;;;;;;;;
2019/05/16 12:37:00;;;;;;;8.9;8;;;;;;;;;;;;;
2019/05/16 12:39:21;;;;;;;8.9;8;;;;;;;;;;;;;
2019/05/16 12:41:54;;;;;;;8.7;7.8;;;;;;;;;;;;;
2019/05/16 12:44:30;;;;;;;8.4;7.5;;;;;;;;;;;;;
2019/05/16 12:47:00;;;;;;;9.5;7.2;;;;;;;;;;;;;
2019/05/16 12:49:25;;;;;;;8.4;7.6;;;;;;;;;;;;;
2019/05/16 12:51:52;;;;;;;8.1;7.3;;;;;;;;;;;;;
2019/05/16 12:54:17;;;;;;;10;7.8;;;;;;;;;;;;;
2019/05/16 12:56:43;;;;;;;9.4;6.2;;;;;;;;;;;;;
2019/05/16 12:59:20;;;;;;;7.9;6.5;;;;;;;;;;;;;
2019/05/16 13:01:46;;;;;;;9.8;6.4;;;;;;;;;;;;;
2019/05/16 13:04:12;;;;;;;6.9;6.3;;;;;;;;;;;;;
2019/05/16 13:06:39;;;;;;;7.5;6.8;;;;;;;;;;;;;
2019/05/16 13:09:04;;;;;;;8.5;6.7;;;;;;;;;;;;;
2019/05/16 13:11:32;;;;;;;7.4;6.3;;;;;;;;;;;;;
2019/05/16 13:13:55;;;;;;;7.3;6.6;;;;;;;;;;;;;
2019/05/16 13:16:19;;;;;;;6.9;6.1;;;;;;;;;;;;;
2019/05/16 13:18:44;;;;;;;7.4;6.5;;;;;;;;;;;;;
2019/05/16 13:21:15;;;;;;;7;5.8;;;;;;;;;;;;;
2019/05/16 13:23:43;;;;;;;7.2;5.9;;;;;;;;;;;;;
2019/05/16 13:26:10;;;;;;;9.8;7.1;;;;;;;;;;;;;
2019/05/16 13:28:33;;;;;;;8.9;6.4;;;;;;;;;;;;;
2019/05/16 13:31:01;;;;;;;7.9;6.3;;;;;;;;;;;;;
2019/05/16 13:33:30;;;;;;;8.4;6;;;;;;;;;;;;;
2019/05/16 13:35:49;;;;;;;7.3;6.2;;;;;;;;;;;;;
2019/05/16 13:38:14;;;;;;;6.5;5.9;;;;;;;;;;;;;
2019/05/16 13:40:43;;;;;;;8.3;6.6;;;;;;;;;;;;;
2019/05/16 13:43:08;;;;;;;6.4;5.8;;;;;;;;;;;;;
2019/05/16 13:45:32;;;;;;;7.1;5.4;;;;;;;;;;;;;
2019/05/16 13:47:56;;;;;;;6.6;5.4;;;;;;;;;;;;;
2019/05/16 13:50:23;;;;;;;6.9;5.8;;;;;;;;;;;;;
2019/05/16 13:52:49;;;;;;;7.1;5.5;;;;;;;;;;;;;
2019/05/16 13:55:15;;;;;;;5.7;5.2;;;;;;;;;;;;;
2019/05/16 13:57:42;;;;;;;6.1;5.1;;;;;;;;;;;;;
2019/05/16 14:00:08;;;;;;;6.1;4.6;;;;;;;;;;;;;
2019/05/16 14:02:31;;;;;;;5.8;5;;;;;;;;;;;;;
2019/05/16 14:04:57;;;;;;;6.7;5.1;;;;;;;;;;;;;
2019/05/16 14:07:23;;;;;;;6;5.3;;;;;;;;;;;;;
2019/05/16 14:09:51;;;;;;;7.6;5.4;;;;;;;;;;;;;
2019/05/16 14:12:14;;;;;;;5.1;4.6;;;;;;;;;;;;;
2019/05/16 14:14:39;;;;;;;7.5;5.8;;;;;;;;;;;;;
2019/05/16 14:17:06;;;;;;;9.7;6.7;;;;;;;;;;;;;
2019/05/16 14:19:34;;;;;;;6.5;5.8;;;;;;;;;;;;;
2019/05/16 14:21:58;;;;;;;8.1;5.7;;;;;;;;;;;;;
2019/05/16 14:24:26;;;;;;;6;5.4;;;;;;;;;;;;;
2019/05/16 14:26:50;;;;;;;6.5;5.5;;;;;;;;;;;;;
2019/05/16 14:29:22;;;;;;;6.5;5.5;;;;;;;;;;;;;
2019/05/16 14:31:45;;;;;;;7;5.7;;;;;;;;;;;;;
2019/05/16 14:34:12;;;;;;;6.4;5.2;;;;;;;;;;;;;
2019/05/16 14:36:42;;;;;;;6.4;5.5;;;;;;;;;;;;;
2019/05/16 14:39:07;;;;;;;7.3;5.7;;;;;;;;;;;;;
2019/05/16 14:41:33;;;;;;;8.9;5.7;;;;;;;;;;;;;
2019/05/16 14:43:59;;;;;;;7.5;6.8;;;;;;;;;;;;;
2019/05/16 14:46:30;;;;;;;7;6.3;;;;;;;;;;;;;
2019/05/16 14:48:53;;;;;;;9.3;6.6;;;;;;;;;;;;;
2019/05/16 14:51:20;;;;;;;8.4;6.6;;;;;;;;;;;;;
2019/05/16 14:54:04;;;;;;;7.5;6.6;;;;;;;;;;;;;
2019/05/16 14:56:24;;;;;;;8.1;6.6;;;;;;;;;;;;;
2019/05/16 14:58:48;;;;;;;10.4;7.3;;;;;;;;;;;;;
2019/05/16 15:01:18;;;;;;;8.6;6.5;;;;;;;;;;;;;
2019/05/16 15:03:43;;;;;;;6.4;5.8;;;;;;;;;;;;;
2019/05/16 15:06:14;;;;;;;8.7;6.8;;;;;;;;;;;;;
2019/05/16 15:08:48;;;;;;;7.9;6.3;;;;;;;;;;;;;
2019/05/16 15:11:13;;;;;;;7.6;5.9;;;;;;;;;;;;;
2019/05/16 15:13:43;;;;;;;7.6;6.2;;;;;;;;;;;;;
2019/05/16 15:16:08;;;;;;;9.4;6.4;;;;;;;;;;;;;
2019/05/16 15:18:36;;;;;;;7.7;6.3;;;;;;;;;;;;;
2019/05/16 15:21:03;;;;;;;9.9;6.6;;;;;;;;;;;;;
2019/05/16 15:23:27;;;;;;;7.6;6.6;;;;;;;;;;;;;
2019/05/16 15:25:52;;;;;;;9.2;6;;;;;;;;;;;;;
2019/05/16 15:28:16;;;;;;;6.8;6.1;;;;;;;;;;;;;
2019/05/16 15:30:44;;;;;;;7;6.3;;;;;;;;;;;;;
2019/05/16 15:33:12;;;;;;;7.1;5.8;;;;;;;;;;;;;
2019/05/16 15:35:41;;;;;;;7.7;5.8;;;;;;;;;;;;;
2019/05/16 15:38:09;;;;;;;7.7;6.1;;;;;;;;;;;;;
2019/05/16 15:40:38;;;;;;;8.8;6.3;;;;;;;;;;;;;
2019/05/16 15:42:58;;;;;;;7.5;6.7;;;;;;;;;;;;;
2019/05/16 15:45:24;;;;;;;7.4;6.6;;;;;;;;;;;;;
2019/05/16 15:47:50;;;;;;;8.4;6.6;;;;;;;;;;;;;
2019/05/16 15:50:18;;;;;;;9.1;6.8;;;;;;;;;;;;;
2019/05/16 15:52:43;;;;;;;7.4;6.6;;;;;;;;;;;;;
2019/05/16 15:55:11;;;;;;;8.6;6.8;;;;;;;;;;;;;
2019/05/16 15:57:35;;;;;;;8.8;6.8;;;;;;;;;;;;;
2019/05/16 15:59:58;;;;;;;8.5;7;;;;;;;;;;;;;
2019/05/16 16:02:24;;;;;;;8.3;7;;;;;;;;;;;;;
2019/05/16 16:04:49;;;;;;;7.6;6.5;;;;;;;;;;;;;
2019/05/16 16:07:19;;;;;;;7.9;7.1;;;;;;;;;;;;;
2019/05/16 16:09:44;;;;;;;9.2;7.1;;;;;;;;;;;;;
2019/05/16 16:12:08;;;;;;;8.7;6.9;;;;;;;;;;;;;
2019/05/16 16:14:34;;;;;;;9.4;6.9;;;;;;;;;;;;;
2019/05/16 16:17:02;;;;;;;8.7;7.1;;;;;;;;;;;;;
2019/05/16 16:19:27;;;;;;;7.9;6.9;;;;;;;;;;;;;
2019/05/16 16:21:58;;;;;;;8.5;6.7;;;;;;;;;;;;;
2019/05/16 16:24:25;;;;;;;8.4;6.4;;;;;;;;;;;;;
2019/05/16 16:26:48;;;;;;;7.9;7.1;;;;;;;;;;;;;
2019/05/16 16:29:17;;;;;;;8.2;7;;;;;;;;;;;;;
2019/05/16 16:31:42;;;;;;;8.7;6.8;;;;;;;;;;;;;
2019/05/16 16:34:07;;;;;;;8.7;6.5;;;;;;;;;;;;;
2019/05/16 16:36:35;;;;;;;10.4;7;;;;;;;;;;;;;
2019/05/16 16:38:58;;;;;;;8.3;6.6;;;;;;;;;;;;;
2019/05/16 16:41:30;;;;;;;7.7;6.8;;;;;;;;;;;;;
2019/05/16 16:43:52;;;;;;;7.7;6.7;;;;;;;;;;;;;
2019/05/16 16:46:21;;;;;;;10.5;7.1;;;;;;;;;;;;;
2019/05/16 16:48:47;;;;;;;9.1;6.8;;;;;;;;;;;;;
2019/05/16 16:51:09;;;;;;;8.2;7.1;;;;;;;;;;;;;
2019/05/16 16:56:19;;;;;;;10.6;6.9;;;;;;;;;;;;;
2019/05/16 16:58:29;;;;;;;11.1;7;;;;;;;;;;;;;
2019/05/16 17:00:54;;;;;;;9.1;6.8;;;;;;;;;;;;;
2019/05/16 17:03:22;;;;;;;8.9;6.9;;;;;;;;;;;;;
2019/05/16 17:05:47;;;;;;;8.3;6.9;;;;;;;;;;;;;
2019/05/16 17:08:10;;;;;;;8.5;6.8;;;;;;;;;;;;;
2019/05/16 17:10:35;;;;;;;9.3;7.1;;;;;;;;;;;;;
2019/05/16 17:13:02;;;;;;;8.7;6.9;;;;;;;;;;;;;
2019/05/16 17:15:28;;;;;;;8.7;7.2;;;;;;;;;;;;;
2019/05/16 17:18:00;;;;;;;9;7.7;;;;;;;;;;;;;
2019/05/16 17:20:24;;;;;;;9.5;7.7;;;;;;;;;;;;;
2019/05/16 17:22:57;;;;;;;10;7.8;;;;;;;;;;;;;
2019/05/16 17:25:22;;;;;;;10.1;7.3;;;;;;;;;;;;;
2019/05/16 17:27:50;;;;;;;8.2;6.8;;;;;;;;;;;;;
2019/05/16 17:30:15;;;;;;;8.9;7;;;;;;;;;;;;;
2019/05/16 17:32:44;;;;;;;8.1;7.3;;;;;;;;;;;;;
2019/05/16 17:35:06;;;;;;;10.8;7.1;;;;;;;;;;;;;
2019/05/16 17:37:31;;;;;;;11.3;7.3;;;;;;;;;;;;;
2019/05/16 17:39:56;;;;;;;9;7.3;;;;;;;;;;;;;
2019/05/16 17:42:21;;;;;;;8.8;7.1;;;;;;;;;;;;;
2019/05/16 17:44:47;;;;;;;9.2;6.7;;;;;;;;;;;;;
2019/05/16 17:47:12;;;;;;;8.1;7;;;;;;;;;;;;;
2019/05/16 17:49:42;;;;;;;10.8;7.1;;;;;;;;;;;;;
2019/05/16 17:52:04;;;;;;;8.9;6.8;;;;;;;;;;;;;
2019/05/16 17:54:27;;;;;;;10.2;6.8;;;;;;;;;;;;;
2019/05/16 17:56:55;;;;;;;8.1;6.4;;;;;;;;;;;;;
2019/05/16 17:59:26;;;;;;;9.3;6.8;;;;;;;;;;;;;
2019/05/16 18:01:49;;;;;;;9.6;6.6;;;;;;;;;;;;;
2019/05/16 18:04:11;;;;;;;8.9;6.5;;;;;;;;;;;;;
2019/05/16 18:06:37;;;;;;;8.5;5.9;;;;;;;;;;;;;
2019/05/16 18:09:04;;;;;;;7.5;6.3;;;;;;;;;;;;;
2019/05/16 18:11:29;;;;;;;9.2;6.6;;;;;;;;;;;;;
2019/05/16 18:13:56;;;;;;;10.7;6.9;;;;;;;;;;;;;
2019/05/16 18:16:22;;;;;;;10.1;6.9;;;;;;;;;;;;;
2019/05/16 18:18:47;;;;;;;11.4;7.2;;;;;;;;;;;;;
2019/05/16 18:21:19;;;;;;;11;7.3;;;;;;;;;;;;;
2019/05/16 18:23:42;;;;;;;11.4;8.1;;;;;;;;;;;;;
2019/05/16 18:26:07;;;;;;;9.8;7.5;;;;;;;;;;;;;
2019/05/16 18:28:40;;;;;;;8.5;7;;;;;;;;;;;;;
2019/05/16 18:31:04;;;;;;;8.4;7.1;;;;;;;;;;;;;
2019/05/16 18:33:27;;;;;;;8.7;6.8;;;;;;;;;;;;;
2019/05/16 18:35:51;;;;;;;8.2;6.2;;;;;;;;;;;;;
2019/05/16 18:38:18;;;;;;;7.8;6;;;;;;;;;;;;;
2019/05/16 18:40:44;;;;;;;6.8;5.5;;;;;;;;;;;;;
2019/05/16 18:43:10;;;;;;;8.4;5.6;;;;;;;;;;;;;
2019/05/16 18:45:39;;;;;;;7.2;6.2;;;;;;;;;;;;;
2019/05/16 18:48:01;;;;;;;8.2;5.8;;;;;;;;;;;;;
2019/05/16 18:50:27;;;;;;;9.7;6.1;;;;;;;;;;;;;
2019/05/16 18:52:55;;;;;;;10;6.5;;;;;;;;;;;;;
2019/05/16 18:55:17;;;;;;;8;6;;;;;;;;;;;;;
2019/05/16 18:57:41;;;;;;;10.1;6.4;;;;;;;;;;;;;
2019/05/16 19:00:07;;;;;;;9.2;6.6;;;;;;;;;;;;;
2019/05/16 19:02:31;;;;;;;9.8;7;;;;;;;;;;;;;
2019/05/16 19:04:57;;;;;;;7.6;6.6;;;;;;;;;;;;;
2019/05/16 19:07:25;;;;;;;9.5;6.7;;;;;;;;;;;;;
2019/05/16 19:09:53;;;;;;;7.7;6.3;;;;;;;;;;;;;
2019/05/16 19:12:17;;;;;;;9.7;6.4;;;;;;;;;;;;;
2019/05/16 19:14:43;;;;;;;9.1;6.3;;;;;;;;;;;;;
2019/05/16 19:17:10;;;;;;;7;6.1;;;;;;;;;;;;;
2019/05/16 19:19:33;;;;;;;8.7;6.2;;;;;;;;;;;;;
2019/05/16 19:22:00;;;;;;;8;6.2;;;;;;;;;;;;;
2019/05/16 19:24:34;;;;;;;7.5;6.1;;;;;;;;;;;;;
2019/05/16 19:26:51;;;;;;;7.3;6;;;;;;;;;;;;;
2019/05/16 19:29:20;;;;;;;7.2;6.4;;;;;;;;;;;;;
2019/05/16 19:31:41;;;;;;;9.5;6.2;;;;;;;;;;;;;
2019/05/16 19:34:06;;;;;;;9.2;6.1;;;;;;;;;;;;;
2019/05/16 19:36:32;;;;;;;9.4;6.2;;;;;;;;;;;;;
2019/05/16 19:39:09;;;;;;;7;6.3;;;;;;;;;;;;;
2019/05/16 19:41:34;;;;;;;9;6.4;;;;;;;;;;;;;
2019/05/16 19:44:01;;;;;;;7.8;6.9;;;;;;;;;;;;;
2019/05/16 19:46:28;;;;;;;10.9;6.7;;;;;;;;;;;;;
2019/05/16 19:48:57;;;;;;;11.3;7.2;;;;;;;;;;;;;
2019/05/16 19:51:23;;;;;;;10.8;7.6;;;;;;;;;;;;;
2019/05/16 19:53:50;;;;;;;12.9;9.3;;;;;;;;;;;;;
2019/05/16 19:56:17;;;;;;;10.8;8.7;;;;;;;;;;;;;
2019/05/16 19:58:42;;;;;;;7.5;6.8;;;;;;;;;;;;;
2019/05/16 20:01:15;;;;;;;8.8;7;;;;;;;;;;;;;
2019/05/16 20:03:43;;;;;;;7.3;6.6;;;;;;;;;;;;;